createdAt,value
2022-12-31T00:01:07.700Z,3.28
2022-12-31T00:04:02.685Z,5.63
2022-12-31T00:06:49.697Z,4.30
2022-12-31T00:09:29.777Z,4.13
2022-12-31T00:12:16.697Z,3.53
2022-12-31T00:14:56.752Z,5.78
2022-12-31T00:17:50.708Z,2.45
2022-12-31T00:20:31.218Z,3.00
2022-12-31T00:23:17.719Z,2.35
2022-12-31T00:26:21.162Z,2.80
2022-12-31T00:29:02.715Z,3.42
2022-12-31T00:31:49.707Z,3.00
2022-12-31T00:34:29.741Z,5.13
2022-12-31T00:37:16.718Z,4.60
2022-12-31T00:39:56.754Z,3.58
2022-12-31T00:42:43.732Z,4.72
2022-12-31T00:48:10.748Z,1.65
2022-12-31T00:53:38.719Z,3.47
2022-12-31T00:56:22.816Z,2.97
2022-12-31T00:59:09.725Z,3.58
2022-12-31T01:01:50.145Z,2.75
2022-12-31T01:04:36.706Z,3.17
2022-12-31T01:07:16.736Z,2.17
2022-12-31T01:10:03.739Z,4.13
2022-12-31T01:15:30.743Z,2.08
2022-12-31T01:18:12.766Z,4.28
2022-12-31T01:21:00.707Z,2.13
2022-12-31T01:23:47.710Z,2.15
2022-12-31T01:26:35.683Z,5.00
2022-12-31T01:29:17.003Z,4.80
2022-12-31T01:34:43.758Z,1.48
2022-12-31T01:37:30.727Z,6.35
2022-12-31T01:40:18.679Z,5.97
2022-12-31T01:43:05.701Z,5.53
2022-12-31T01:45:55.747Z,3.08
2022-12-31T01:48:36.912Z,3.78
2022-12-31T01:51:23.701Z,5.95
2022-12-31T01:54:15.711Z,4.38
2022-12-31T01:57:05.702Z,6.63
2022-12-31T01:59:52.777Z,3.08
2022-12-31T02:02:32.803Z,4.43
2022-12-31T02:05:36.008Z,4.53
2022-12-31T02:08:23.718Z,4.82
2022-12-31T02:11:36.407Z,3.78
2022-12-31T02:14:31.719Z,4.93
2022-12-31T02:18:02.672Z,4.00
2022-12-31T02:21:11.708Z,4.32
2022-12-31T02:24:02.057Z,3.13
2022-12-31T02:27:08.744Z,4.22
2022-12-31T02:30:05.761Z,4.88
2022-12-31T02:33:04.712Z,4.03
2022-12-31T02:36:11.755Z,4.10
2022-12-31T02:38:59.729Z,3.55
2022-12-31T02:41:51.811Z,5.45
2022-12-31T02:44:39.700Z,3.00
2022-12-31T02:47:40.705Z,3.28
2022-12-31T02:50:40.973Z,3.33
2022-12-31T02:53:36.715Z,3.75
2022-12-31T02:56:51.703Z,3.50
2022-12-31T03:00:12.718Z,3.72
2022-12-31T03:03:01.725Z,2.83
2022-12-31T03:05:44.893Z,3.33
2022-12-31T03:08:59.709Z,3.25
2022-12-31T03:12:12.736Z,4.93
2022-12-31T03:14:53.700Z,3.67
2022-12-31T03:17:40.709Z,3.17
2022-12-31T03:20:48.271Z,6.72
2022-12-31T03:23:49.703Z,3.53
2022-12-31T03:26:30.182Z,3.67
2022-12-31T03:29:16.707Z,4.10
2022-12-31T03:31:57.213Z,4.25
2022-12-31T03:34:43.721Z,2.38
2022-12-31T03:37:24.190Z,2.67
2022-12-31T03:40:10.720Z,2.22
2022-12-31T03:42:51.484Z,4.57
2022-12-31T03:45:37.733Z,5.32
2022-12-31T03:51:11.779Z,2.30
2022-12-31T03:53:52.200Z,2.10
2022-12-31T03:56:38.711Z,4.40
2022-12-31T03:59:25.714Z,3.60
2022-12-31T04:02:05.828Z,2.08
2022-12-31T04:04:52.707Z,3.53
2022-12-31T04:10:22.724Z,2.72
2022-12-31T04:13:04.683Z,4.95
2022-12-31T04:15:51.705Z,3.53
2022-12-31T04:18:38.701Z,3.20
2022-12-31T04:21:28.875Z,1.63
2022-12-31T04:24:12.902Z,2.78
2022-12-31T04:27:05.349Z,5.43
2022-12-31T04:29:53.738Z,3.88
2022-12-31T04:32:47.700Z,2.50
2022-12-31T04:35:34.698Z,1.90
2022-12-31T04:38:21.724Z,1.58
2022-12-31T04:41:17.922Z,1.80
2022-12-31T04:43:59.755Z,2.30
2022-12-31T04:46:46.906Z,1.83
2022-12-31T04:49:27.886Z,2.10
2022-12-31T04:52:14.717Z,2.97
2022-12-31T04:55:01.715Z,1.38
2022-12-31T04:57:48.784Z,1.30
2022-12-31T05:00:28.712Z,1.70
2022-12-31T05:03:09.267Z,2.08
2022-12-31T05:05:56.716Z,1.33
2022-12-31T05:08:37.207Z,3.08
2022-12-31T05:11:24.729Z,2.20
2022-12-31T05:14:05.207Z,2.28
2022-12-31T05:16:51.756Z,2.30
2022-12-31T05:19:32.193Z,1.88
2022-12-31T05:22:36.724Z,2.17
2022-12-31T05:25:23.776Z,1.52
2022-12-31T05:28:03.726Z,1.98
2022-12-31T05:30:44.461Z,0.95
2022-12-31T05:33:32.707Z,2.53
2022-12-31T05:36:19.773Z,3.42
2022-12-31T05:38:59.727Z,0.85
2022-12-31T05:41:40.200Z,1.33
2022-12-31T05:44:26.713Z,0.85
2022-12-31T05:47:13.711Z,1.52
2022-12-31T05:50:00.749Z,1.33
2022-12-31T05:55:27.792Z,1.85
2022-12-31T05:58:14.787Z,1.35
2022-12-31T06:00:54.879Z,1.13
2022-12-31T06:03:41.822Z,1.25
2022-12-31T06:06:21.792Z,1.80
2022-12-31T06:09:08.726Z,1.15
2022-12-31T06:14:40.802Z,0.55
2022-12-31T06:17:30.726Z,1.15
2022-12-31T06:20:17.780Z,2.22
2022-12-31T06:22:57.721Z,1.50
2022-12-31T06:25:38.193Z,1.90
2022-12-31T06:28:25.718Z,1.85
2022-12-31T06:31:08.390Z,1.23
2022-12-31T06:33:55.726Z,1.05
2022-12-31T06:36:42.766Z,1.33
2022-12-31T06:39:22.715Z,1.48
2022-12-31T06:42:09.770Z,2.17
2022-12-31T06:44:49.731Z,2.15
2022-12-31T06:47:36.747Z,2.47
2022-12-31T06:50:16.756Z,1.95
2022-12-31T06:53:03.738Z,2.40
2022-12-31T06:58:30.711Z,3.33
2022-12-31T07:01:35.900Z,4.35
2022-12-31T07:04:48.719Z,2.45
2022-12-31T07:08:08.723Z,3.70
2022-12-31T07:11:11.715Z,3.53
2022-12-31T07:14:00.857Z,2.95
2022-12-31T07:17:10.727Z,2.50
2022-12-31T07:20:09.801Z,1.13
2022-12-31T07:22:56.728Z,1.13
2022-12-31T07:25:44.733Z,3.55
2022-12-31T07:28:57.728Z,2.45
2022-12-31T07:32:03.795Z,1.60
2022-12-31T07:35:31.291Z,1.02
2022-12-31T07:38:37.796Z,0.40
2022-12-31T07:42:06.723Z,0.30
2022-12-31T07:45:09.783Z,1.42
2022-12-31T07:48:02.493Z,0.70
2022-12-31T07:50:49.706Z,0.35
2022-12-31T07:53:36.780Z,0.25
2022-12-31T07:56:16.756Z,1.08
2022-12-31T07:59:24.090Z,0.90
2022-12-31T08:02:42.815Z,0.45
2022-12-31T08:05:41.829Z,0.75
2022-12-31T08:08:41.730Z,0.45
2022-12-31T08:11:34.389Z,0.75
2022-12-31T08:14:24.729Z,0.65
2022-12-31T08:17:05.622Z,4.20
2022-12-31T08:19:54.725Z,0.95
2022-12-31T08:23:05.725Z,0.88
2022-12-31T08:26:19.735Z,1.75
2022-12-31T08:29:30.760Z,1.55
2022-12-31T08:32:31.746Z,0.98
2022-12-31T08:35:48.773Z,2.22
2022-12-31T08:38:45.745Z,1.45
2022-12-31T08:41:42.731Z,2.63
2022-12-31T08:44:41.737Z,2.28
2022-12-31T08:48:00.064Z,1.58
2022-12-31T08:50:46.782Z,1.48
2022-12-31T08:53:26.815Z,1.02
2022-12-31T08:56:33.771Z,3.38
2022-12-31T08:59:41.720Z,2.00
2022-12-31T09:02:49.937Z,0.85
2022-12-31T09:06:06.730Z,0.88
2022-12-31T09:09:13.801Z,0.40
2022-12-31T09:15:08.725Z,1.60
2022-12-31T09:17:54.868Z,0.98
2022-12-31T09:20:44.211Z,1.38
2022-12-31T09:23:30.734Z,1.15
2022-12-31T09:29:18.835Z,2.92
2022-12-31T09:32:35.728Z,1.15
2022-12-31T09:35:36.193Z,2.03
2022-12-31T09:38:39.736Z,1.65
2022-12-31T09:41:57.726Z,1.48
2022-12-31T09:45:12.771Z,1.15
2022-12-31T09:48:30.981Z,1.58
2022-12-31T09:51:39.744Z,1.30
2022-12-31T09:54:45.264Z,2.30
2022-12-31T09:57:48.729Z,1.30
2022-12-31T10:00:45.747Z,0.43
2022-12-31T10:04:01.747Z,2.33
2022-12-31T10:06:54.789Z,2.75
2022-12-31T10:10:00.774Z,3.65
2022-12-31T10:13:08.309Z,1.85
2022-12-31T10:16:00.748Z,2.50
2022-12-31T10:19:13.758Z,2.08
2022-12-31T10:22:05.822Z,2.20
2022-12-31T10:25:11.751Z,0.95
2022-12-31T10:28:02.754Z,2.72
2022-12-31T10:30:58.783Z,4.55
2022-12-31T10:33:52.729Z,2.20
2022-12-31T10:36:42.182Z,2.35
2022-12-31T10:39:35.725Z,2.67
2022-12-31T10:42:31.749Z,2.63
2022-12-31T10:45:39.791Z,0.95
2022-12-31T10:49:04.751Z,2.13
2022-12-31T10:52:01.808Z,3.08
2022-12-31T10:55:09.737Z,2.45
2022-12-31T10:58:45.779Z,2.50
2022-12-31T11:01:47.273Z,1.98
2022-12-31T11:05:02.742Z,4.57
2022-12-31T11:07:56.326Z,2.15
2022-12-31T11:11:04.729Z,3.83
2022-12-31T11:14:03.447Z,2.10
2022-12-31T11:17:00.760Z,4.20
2022-12-31T11:20:09.753Z,1.88
2022-12-31T11:22:58.801Z,4.00
2022-12-31T11:26:11.714Z,4.35
2022-12-31T11:29:22.799Z,3.17
2022-12-31T11:32:13.742Z,5.00
2022-12-31T11:35:20.811Z,2.97
2022-12-31T11:38:27.724Z,5.65
2022-12-31T11:41:34.785Z,2.72
2022-12-31T11:44:53.739Z,3.53
2022-12-31T11:51:21.810Z,3.28
2022-12-31T11:54:17.758Z,3.47
2022-12-31T11:57:15.834Z,2.72
2022-12-31T12:00:08.768Z,3.65
2022-12-31T12:02:55.825Z,3.88
2022-12-31T12:05:44.747Z,4.00
2022-12-31T12:08:24.796Z,2.58
2022-12-31T12:11:25.730Z,3.72
2022-12-31T12:14:05.829Z,3.45
2022-12-31T12:16:52.730Z,3.42
2022-12-31T12:19:36.860Z,6.95
2022-12-31T12:22:29.729Z,5.13
2022-12-31T12:25:20.755Z,3.50
2022-12-31T12:28:24.843Z,6.40
2022-12-31T12:31:10.767Z,5.13
2022-12-31T12:34:04.743Z,4.72
2022-12-31T12:36:54.741Z,3.95
2022-12-31T12:39:38.818Z,3.33
2022-12-31T12:42:25.747Z,3.03
2022-12-31T12:45:23.138Z,4.95
2022-12-31T12:48:19.743Z,4.00
2022-12-31T12:50:59.819Z,6.25
2022-12-31T12:53:55.745Z,2.88
2022-12-31T12:56:48.736Z,4.47
2022-12-31T12:59:47.456Z,7.15
2022-12-31T13:02:57.877Z,4.47
2022-12-31T13:06:24.743Z,5.22
2022-12-31T13:09:04.792Z,3.33
2022-12-31T13:12:13.750Z,3.50
2022-12-31T13:15:25.803Z,3.92
2022-12-31T13:18:43.748Z,3.90
2022-12-31T13:21:39.769Z,3.30
2022-12-31T13:24:50.806Z,4.35
2022-12-31T13:27:45.782Z,7.90
2022-12-31T13:30:47.205Z,3.97
2022-12-31T13:33:42.753Z,7.68
2022-12-31T13:36:33.763Z,4.53
2022-12-31T13:39:29.760Z,5.30
2022-12-31T13:42:19.952Z,4.15
2022-12-31T13:45:15.780Z,6.20
2022-12-31T13:48:05.526Z,3.10
2022-12-31T13:50:59.772Z,5.50
2022-12-31T13:54:03.841Z,3.58
2022-12-31T13:56:45.787Z,5.00
2022-12-31T13:59:35.200Z,4.70
2022-12-31T14:02:41.873Z,7.35
2022-12-31T14:05:28.968Z,6.88
2022-12-31T14:11:23.808Z,7.05
2022-12-31T14:14:28.747Z,3.67
2022-12-31T14:17:34.764Z,5.85
2022-12-31T14:20:40.811Z,3.53
2022-12-31T14:23:57.770Z,6.10
2022-12-31T14:27:09.757Z,4.55
2022-12-31T14:30:08.811Z,5.75
2022-12-31T14:33:17.757Z,5.35
2022-12-31T14:36:22.886Z,4.70
2022-12-31T14:39:33.750Z,5.00
2022-12-31T14:42:59.766Z,3.65
2022-12-31T14:45:51.860Z,5.78
2022-12-31T14:49:00.758Z,4.53
2022-12-31T14:51:41.816Z,4.28
2022-12-31T14:54:34.763Z,5.25
2022-12-31T14:58:26.027Z,4.45
2022-12-31T15:01:16.853Z,6.57
2022-12-31T15:03:57.893Z,8.52
2022-12-31T15:10:14.889Z,6.72
2022-12-31T15:13:22.752Z,4.50
2022-12-31T15:16:27.795Z,8.25
2022-12-31T15:19:17.417Z,4.43
2022-12-31T15:22:30.776Z,5.15
2022-12-31T15:25:35.374Z,9.27
2022-12-31T15:28:44.769Z,6.88
2022-12-31T15:31:49.750Z,7.53
2022-12-31T15:34:44.758Z,4.07
2022-12-31T15:37:41.851Z,9.80
2022-12-31T15:40:21.767Z,4.80
2022-12-31T15:43:21.823Z,7.45
2022-12-31T15:46:02.826Z,6.28
2022-12-31T15:49:23.032Z,7.30
2022-12-31T15:52:13.751Z,6.03
2022-12-31T15:55:04.773Z,6.55
2022-12-31T15:57:49.893Z,6.97
2022-12-31T16:01:08.848Z,5.47
2022-12-31T16:03:52.823Z,7.72
2022-12-31T16:06:48.963Z,5.70
2022-12-31T16:09:36.886Z,7.45
2022-12-31T16:12:34.459Z,8.05
2022-12-31T16:15:27.837Z,7.63
2022-12-31T16:18:23.152Z,6.78
2022-12-31T16:21:02.836Z,7.95
2022-12-31T16:23:57.758Z,7.15
2022-12-31T16:26:51.817Z,7.97
2022-12-31T16:29:42.764Z,10.20
2022-12-31T16:32:31.770Z,8.27
2022-12-31T16:35:38.770Z,8.40
2022-12-31T16:38:19.542Z,7.18
2022-12-31T16:41:14.768Z,13.98
2022-12-31T16:44:01.809Z,7.13
2022-12-31T16:49:28.825Z,9.82
2022-12-31T16:54:57.779Z,8.13
2022-12-31T17:00:26.773Z,10.73
2022-12-31T17:03:26.879Z,10.90
2022-12-31T17:06:13.786Z,10.82
2022-12-31T17:12:00.772Z,8.27
2022-12-31T17:15:03.758Z,6.90
2022-12-31T17:17:50.783Z,11.35
2022-12-31T17:23:40.775Z,8.30
2022-12-31T17:26:28.869Z,11.20
2022-12-31T17:29:28.767Z,12.07
2022-12-31T17:32:31.984Z,8.50
2022-12-31T17:35:52.766Z,9.40
2022-12-31T17:38:42.782Z,7.88
2022-12-31T17:41:32.825Z,10.27
2022-12-31T17:44:27.774Z,11.00
2022-12-31T17:47:11.647Z,8.27
2022-12-31T17:49:59.767Z,12.60
2022-12-31T17:52:46.760Z,8.55
2022-12-31T17:58:29.265Z,7.93
2022-12-31T18:01:12.123Z,10.82
2022-12-31T18:03:58.785Z,8.68
2022-12-31T18:09:32.772Z,8.50
2022-12-31T18:15:00.755Z,9.82
2022-12-31T18:20:27.766Z,9.55
2022-12-31T18:23:23.974Z,7.95
2022-12-31T18:26:10.778Z,11.40
2022-12-31T18:31:44.826Z,11.30
2022-12-31T18:37:25.788Z,10.95
2022-12-31T18:42:52.790Z,10.65
2022-12-31T18:48:19.772Z,11.95
2022-12-31T18:50:59.852Z,9.90
2022-12-31T18:53:46.808Z,11.68
2022-12-31T18:59:15.315Z,8.25
2022-12-31T19:02:01.889Z,12.00
2022-12-31T19:07:28.771Z,11.90
2022-12-31T19:10:09.407Z,9.38
2022-12-31T19:12:56.776Z,9.90
2022-12-31T19:15:52.806Z,10.23
2022-12-31T19:18:39.791Z,9.77
2022-12-31T19:24:15.797Z,9.07
2022-12-31T19:26:56.261Z,9.57
2022-12-31T19:29:43.787Z,10.75
2022-12-31T19:32:30.834Z,10.50
2022-12-31T19:37:59.788Z,10.40
2022-12-31T19:40:39.818Z,8.10
2022-12-31T19:43:29.781Z,8.98
2022-12-31T19:46:17.862Z,12.27
2022-12-31T19:48:58.399Z,13.00
2022-12-31T19:51:44.793Z,10.75
2022-12-31T19:57:11.787Z,11.32
2022-12-31T20:02:45.050Z,10.30
2022-12-31T20:05:31.773Z,16.10
2022-12-31T20:11:12.961Z,9.05
2022-12-31T20:13:54.807Z,10.52
2022-12-31T20:16:41.898Z,10.27
2022-12-31T20:22:02.304Z,10.77
2022-12-31T20:24:48.760Z,13.90
2022-12-31T20:30:16.789Z,12.75
2022-12-31T20:33:03.836Z,11.80
2022-12-31T20:38:37.793Z,12.65
2022-12-31T20:44:06.899Z,13.90
2022-12-31T20:46:53.915Z,11.00
2022-12-31T20:52:40.796Z,11.60
2022-12-31T20:58:08.271Z,14.57
2022-12-31T21:00:54.783Z,12.88
2022-12-31T21:06:42.792Z,11.05
2022-12-31T21:09:29.838Z,12.88
2022-12-31T21:15:08.877Z,11.57
2022-12-31T21:17:55.801Z,12.80
2022-12-31T21:23:18.775Z,13.30
2022-12-31T21:26:05.825Z,12.90
2022-12-31T21:31:32.813Z,12.68
2022-12-31T21:34:26.780Z,15.07
2022-12-31T21:37:13.780Z,12.25
2022-12-31T21:39:53.857Z,11.65
2022-12-31T21:42:40.786Z,13.60
2022-12-31T21:48:26.805Z,15.10
2022-12-31T21:51:53.822Z,14.38
2022-12-31T21:54:59.796Z,12.38
2022-12-31T21:58:07.267Z,12.40
2022-12-31T22:01:05.852Z,14.20
2022-12-31T22:03:45.890Z,12.63
2022-12-31T22:06:32.798Z,14.77
2022-12-31T22:11:59.788Z,16.67
2022-12-31T22:17:46.818Z,11.73
2022-12-31T22:23:14.774Z,13.52
2022-12-31T22:28:41.794Z,13.32
2022-12-31T22:34:10.799Z,12.00
2022-12-31T22:39:44.679Z,14.70
2022-12-31T22:42:27.836Z,11.10
2022-12-31T22:45:15.809Z,11.90
2022-12-31T22:47:55.885Z,12.98
2022-12-31T22:50:42.804Z,11.50
2022-12-31T22:56:09.798Z,11.77
2022-12-31T23:01:36.902Z,12.55
2022-12-31T23:07:03.806Z,22.27
2022-12-31T23:12:48.799Z,38.03
2022-12-31T23:18:52.794Z,32.08
2022-12-31T23:21:57.782Z,61.53
2022-12-31T23:24:45.827Z,37.75
2022-12-31T23:27:25.856Z,52.17
2022-12-31T23:30:13.807Z,43.83
2022-12-31T23:32:53.865Z,44.40
2022-12-31T23:35:47.816Z,39.63
2022-12-31T23:38:28.303Z,52.38
2022-12-31T23:41:14.784Z,49.10
2022-12-31T23:46:41.852Z,36.47
2022-12-31T23:52:08.796Z,36.72
2022-12-31T23:57:35.790Z,38.67
